createdAt,value
2023-04-20T00:01:33.155Z,99.90
2023-04-20T00:04:00.393Z,99.90
2023-04-20T00:06:31.488Z,99.90
2023-04-20T00:08:58.675Z,99.90
2023-04-20T00:11:26.718Z,99.90
2023-04-20T00:13:53.975Z,99.90
2023-04-20T00:16:21.241Z,99.90
2023-04-20T00:18:48.773Z,99.90
2023-04-20T00:21:15.963Z,99.90
2023-04-20T00:23:43.142Z,99.90
2023-04-20T00:26:10.687Z,99.90
2023-04-20T00:28:37.857Z,99.90
2023-04-20T00:31:06.089Z,99.90
2023-04-20T00:33:33.244Z,99.90
2023-04-20T00:36:00.423Z,99.90
2023-04-20T00:38:30.493Z,99.90
2023-04-20T00:40:57.711Z,99.90
2023-04-20T00:43:24.917Z,99.90
2023-04-20T00:45:52.875Z,99.90
2023-04-20T00:48:21.243Z,99.90
2023-04-20T00:50:49.770Z,99.90
2023-04-20T00:53:18.616Z,99.90
2023-04-20T00:55:46.043Z,99.90
2023-04-20T00:58:13.369Z,99.90
2023-04-20T01:00:40.985Z,99.90
2023-04-20T01:03:08.814Z,99.90
2023-04-20T01:05:36.304Z,99.90
2023-04-20T01:08:03.678Z,99.90
2023-04-20T01:10:30.987Z,99.90
2023-04-20T01:12:58.811Z,99.90
2023-04-20T01:15:26.348Z,99.90
2023-04-20T01:17:53.788Z,99.90
2023-04-20T01:20:23.871Z,99.90
2023-04-20T01:22:53.857Z,99.90
2023-04-20T01:25:21.641Z,99.90
2023-04-20T01:27:48.959Z,99.90
2023-04-20T01:30:17.392Z,99.90
2023-04-20T01:32:45.563Z,99.90
2023-04-20T01:35:12.819Z,99.90
2023-04-20T01:37:40.787Z,99.90
2023-04-20T01:40:12.334Z,99.90
2023-04-20T01:42:39.910Z,99.90
2023-04-20T01:45:07.694Z,99.90
2023-04-20T01:47:37.558Z,99.90
2023-04-20T01:50:04.911Z,99.90
2023-04-20T01:52:32.087Z,99.90
2023-04-20T01:54:59.175Z,99.90
2023-04-20T01:57:26.289Z,99.90
2023-04-20T01:59:53.431Z,99.90
2023-04-20T02:02:23.215Z,99.90
2023-04-20T02:04:50.557Z,99.90
2023-04-20T02:07:17.687Z,99.90
2023-04-20T02:09:44.797Z,99.90
2023-04-20T02:12:11.986Z,99.90
2023-04-20T02:14:39.066Z,99.90
2023-04-20T02:17:09.141Z,99.90
2023-04-20T02:19:36.659Z,99.90
2023-04-20T02:22:03.909Z,99.90
2023-04-20T02:24:31.104Z,99.90
2023-04-20T02:26:58.890Z,99.90
2023-04-20T02:29:26.177Z,99.90
2023-04-20T02:31:53.216Z,99.90
2023-04-20T02:34:20.370Z,99.90
2023-04-20T02:36:48.880Z,99.90
2023-04-20T02:39:16.319Z,99.90
2023-04-20T02:41:43.707Z,99.90
2023-04-20T02:44:10.894Z,99.90
2023-04-20T02:46:37.937Z,99.90
2023-04-20T02:49:05.109Z,99.90
2023-04-20T02:51:32.445Z,99.90
2023-04-20T02:53:59.596Z,99.90
2023-04-20T02:56:27.055Z,99.90
2023-04-20T02:58:55.056Z,99.90
2023-04-20T03:01:22.249Z,99.90
2023-04-20T03:03:49.831Z,99.90
2023-04-20T03:06:17.154Z,99.90
2023-04-20T03:08:44.282Z,99.90
2023-04-20T03:11:11.413Z,99.90
2023-04-20T03:13:38.555Z,99.90
2023-04-20T03:16:06.427Z,99.90
2023-04-20T03:18:36.454Z,99.90
2023-04-20T03:21:03.814Z,99.90
2023-04-20T03:23:30.912Z,99.90
2023-04-20T03:25:58.002Z,99.90
2023-04-20T03:28:26.368Z,99.90
2023-04-20T03:30:53.438Z,99.90
2023-04-20T03:33:20.630Z,99.90
2023-04-20T03:35:47.836Z,99.90
2023-04-20T03:38:14.916Z,99.90
2023-04-20T03:40:42.105Z,99.90
2023-04-20T03:43:09.286Z,99.90
2023-04-20T03:45:36.668Z,99.90
2023-04-20T03:48:04.246Z,99.90
2023-04-20T03:50:31.537Z,99.90
2023-04-20T03:52:58.597Z,99.90
2023-04-20T03:55:25.784Z,99.90
2023-04-20T03:57:54.113Z,99.90
2023-04-20T04:00:21.552Z,99.90
2023-04-20T04:02:48.776Z,99.90
2023-04-20T04:05:16.433Z,99.90
2023-04-20T04:07:43.610Z,99.90
2023-04-20T04:10:11.249Z,99.90
2023-04-20T04:12:38.356Z,99.90
2023-04-20T04:15:06.064Z,99.90
2023-04-20T04:17:33.186Z,99.90
2023-04-20T04:20:00.356Z,99.90
2023-04-20T04:22:29.288Z,99.90
2023-04-20T04:24:57.940Z,99.90
2023-04-20T04:27:25.092Z,99.90
2023-04-20T04:29:52.191Z,99.90
2023-04-20T04:32:19.431Z,99.90
2023-04-20T04:34:46.533Z,99.90
2023-04-20T04:37:14.563Z,99.90
2023-04-20T04:39:41.719Z,99.90
2023-04-20T04:42:08.856Z,99.90
2023-04-20T04:44:37.668Z,99.90
2023-04-20T04:47:09.675Z,99.90
2023-04-20T04:49:37.204Z,99.90
2023-04-20T04:52:04.681Z,99.90
2023-04-20T04:54:31.928Z,99.90
2023-04-20T04:56:59.065Z,99.90
2023-04-20T04:59:26.248Z,99.90
2023-04-20T05:01:53.407Z,99.90
2023-04-20T05:04:20.888Z,99.90
2023-04-20T05:06:48.038Z,99.90
2023-04-20T05:09:15.382Z,99.90
2023-04-20T05:11:42.759Z,99.90
2023-04-20T05:14:09.894Z,99.90
2023-04-20T05:16:37.104Z,99.90
2023-04-20T05:19:04.448Z,99.90
2023-04-20T05:21:32.836Z,99.90
2023-04-20T05:24:00.046Z,99.90
2023-04-20T05:26:27.197Z,99.90
2023-04-20T05:28:54.776Z,99.90
2023-04-20T05:31:22.139Z,99.90
2023-04-20T05:33:49.245Z,99.90
2023-04-20T05:36:16.452Z,99.90
2023-04-20T05:38:43.609Z,99.90
2023-04-20T05:41:10.904Z,99.90
2023-04-20T05:43:38.171Z,99.90
2023-04-20T05:46:05.856Z,99.90
2023-04-20T05:48:32.938Z,99.90
2023-04-20T05:51:00.083Z,99.90
2023-04-20T05:53:27.241Z,99.90
2023-04-20T05:55:54.294Z,99.90
2023-04-20T05:58:21.511Z,99.90
2023-04-20T06:00:48.655Z,99.90
2023-04-20T06:03:16.992Z,99.90
2023-04-20T06:05:44.399Z,99.90
2023-04-20T06:08:11.683Z,99.90
2023-04-20T06:10:38.802Z,99.90
2023-04-20T06:13:06.165Z,96.90
2023-04-20T06:15:33.449Z,95.90
2023-04-20T06:18:01.878Z,98.60
2023-04-20T06:20:29.361Z,97.40
2023-04-20T06:22:57.065Z,95.50
2023-04-20T06:25:24.266Z,92.50
2023-04-20T06:27:52.787Z,92.90
2023-04-20T06:30:20.364Z,94.20
2023-04-20T06:32:47.520Z,90.40
2023-04-20T06:35:14.714Z,91.10
2023-04-20T06:37:41.891Z,93.10
2023-04-20T06:40:09.500Z,92.20
2023-04-20T06:42:37.464Z,94.20
2023-04-20T06:45:06.594Z,94.70
2023-04-20T06:47:34.235Z,95.30
2023-04-20T06:50:02.446Z,96.10
2023-04-20T06:52:31.301Z,98.20
2023-04-20T06:55:00.001Z,95.90
2023-04-20T06:57:27.170Z,93.80
2023-04-20T06:59:54.386Z,94.60
2023-04-20T07:02:21.635Z,94.20
2023-04-20T07:04:51.906Z,91.70
2023-04-20T07:07:19.055Z,91.30
2023-04-20T07:09:46.293Z,90.90
2023-04-20T07:12:15.884Z,90.40
2023-04-20T07:14:43.538Z,87.70
2023-04-20T07:17:10.720Z,85.70
2023-04-20T07:19:37.889Z,82.00
2023-04-20T07:22:05.049Z,82.40
2023-04-20T07:24:32.265Z,87.00
2023-04-20T07:26:59.359Z,82.50
2023-04-20T07:29:26.426Z,80.40
2023-04-20T07:31:53.582Z,79.90
2023-04-20T07:34:20.926Z,77.90
2023-04-20T07:36:48.063Z,77.70
2023-04-20T07:39:16.329Z,79.30
2023-04-20T07:41:44.018Z,80.00
2023-04-20T07:44:13.888Z,77.60
2023-04-20T07:46:41.120Z,75.50
2023-04-20T07:49:08.358Z,75.60
2023-04-20T07:51:35.595Z,75.00
2023-04-20T07:54:02.759Z,76.10
2023-04-20T07:56:30.935Z,75.40
2023-04-20T07:58:58.034Z,74.30
2023-04-20T08:01:26.095Z,73.50
2023-04-20T08:03:55.301Z,73.00
2023-04-20T08:06:22.909Z,72.10
2023-04-20T08:08:50.226Z,73.30
2023-04-20T08:11:17.779Z,74.60
2023-04-20T08:13:44.997Z,71.50
2023-04-20T08:16:12.270Z,68.80
2023-04-20T08:18:39.533Z,69.00
2023-04-20T08:21:07.321Z,70.00
2023-04-20T08:23:34.509Z,68.90
2023-04-20T08:26:01.921Z,72.30
2023-04-20T08:28:33.374Z,74.20
2023-04-20T08:31:01.691Z,73.80
2023-04-20T08:33:28.894Z,75.90
2023-04-20T08:35:56.158Z,75.60
2023-04-20T08:38:33.663Z,78.10
2023-04-20T08:41:01.885Z,77.80
2023-04-20T08:43:29.313Z,76.40
2023-04-20T08:46:00.225Z,77.30
2023-04-20T08:48:37.390Z,75.50
2023-04-20T08:51:05.760Z,73.70
2023-04-20T08:53:33.482Z,76.90
2023-04-20T08:56:00.869Z,82.00
2023-04-20T08:58:32.518Z,79.50
2023-04-20T09:01:02.810Z,78.20
2023-04-20T09:03:42.333Z,80.20
2023-04-20T09:06:17.788Z,79.20
2023-04-20T09:08:46.793Z,78.70
2023-04-20T09:11:30.056Z,80.10
2023-04-20T09:14:07.090Z,82.30
2023-04-20T09:16:40.117Z,82.20
2023-04-20T09:19:12.284Z,82.00
2023-04-20T09:21:50.164Z,84.30
2023-04-20T09:24:17.961Z,84.30
2023-04-20T09:26:45.319Z,85.60
2023-04-20T09:29:23.504Z,85.00
2023-04-20T09:31:51.879Z,83.20
2023-04-20T09:34:20.666Z,82.80
2023-04-20T09:36:52.219Z,86.00
2023-04-20T09:39:21.144Z,86.20
2023-04-20T09:41:49.920Z,86.10
2023-04-20T09:44:18.411Z,86.70
2023-04-20T09:46:47.145Z,87.20
2023-04-20T09:49:15.240Z,85.90
2023-04-20T09:51:47.159Z,86.10
2023-04-20T09:54:16.121Z,86.50
2023-04-20T09:56:43.671Z,87.10
2023-04-20T09:59:12.008Z,84.50
2023-04-20T10:01:39.200Z,85.00
2023-04-20T10:04:11.363Z,88.10
2023-04-20T10:06:39.091Z,86.50
2023-04-20T10:09:08.493Z,87.70
2023-04-20T10:11:49.013Z,89.80
2023-04-20T10:14:21.255Z,87.80
2023-04-20T10:17:03.719Z,86.90
2023-04-20T10:19:44.924Z,85.30
2023-04-20T10:22:25.344Z,87.10
2023-04-20T10:24:52.512Z,88.10
2023-04-20T10:27:20.972Z,84.40
2023-04-20T10:29:48.512Z,83.90
2023-04-20T10:32:29.287Z,84.20
2023-04-20T10:35:10.141Z,85.50
2023-04-20T10:37:52.186Z,87.20
2023-04-20T10:40:29.637Z,85.50
2023-04-20T10:42:56.795Z,83.50
2023-04-20T10:45:38.688Z,84.60
2023-04-20T10:48:12.335Z,85.80
2023-04-20T10:50:39.571Z,82.90
2023-04-20T10:53:20.869Z,84.40
2023-04-20T10:55:57.561Z,82.10
2023-04-20T10:58:25.737Z,82.80
2023-04-20T11:01:05.907Z,82.00
2023-04-20T11:03:34.660Z,82.60
2023-04-20T11:06:03.848Z,87.40
2023-04-20T11:08:38.467Z,85.50
2023-04-20T11:11:06.147Z,87.50
2023-04-20T11:13:34.693Z,82.40
2023-04-20T11:16:11.388Z,82.80
2023-04-20T11:18:54.432Z,83.20
2023-04-20T11:21:22.758Z,83.40
2023-04-20T11:23:50.790Z,82.30
2023-04-20T11:26:18.249Z,84.20
2023-04-20T11:28:56.265Z,82.90
2023-04-20T11:31:24.055Z,81.30
2023-04-20T11:33:51.581Z,80.50
2023-04-20T11:36:30.195Z,83.20
2023-04-20T11:39:09.467Z,78.90
2023-04-20T11:41:39.178Z,81.40
2023-04-20T11:44:07.062Z,79.80
2023-04-20T11:46:37.805Z,78.20
2023-04-20T11:49:05.168Z,78.30
2023-04-20T11:51:32.253Z,77.20
2023-04-20T11:53:59.323Z,79.30
2023-04-20T11:56:26.561Z,78.80
2023-04-20T11:58:53.704Z,80.70
2023-04-20T12:01:21.369Z,78.70
2023-04-20T12:03:48.712Z,79.50
2023-04-20T12:06:15.933Z,79.20
2023-04-20T12:08:44.072Z,78.10
2023-04-20T12:11:11.366Z,79.50
2023-04-20T12:13:38.492Z,79.90
2023-04-20T12:16:06.188Z,79.50
2023-04-20T12:18:33.568Z,81.10
2023-04-20T12:21:01.199Z,85.10
2023-04-20T12:23:28.306Z,81.30
2023-04-20T12:25:55.728Z,82.50
2023-04-20T12:28:23.007Z,82.80
2023-04-20T12:30:50.114Z,84.90
2023-04-20T12:33:17.329Z,84.50
2023-04-20T12:35:45.390Z,82.30
2023-04-20T12:38:14.538Z,85.70
2023-04-20T12:40:44.899Z,84.60
2023-04-20T12:43:12.105Z,85.10
2023-04-20T12:45:39.245Z,83.80
2023-04-20T12:48:06.427Z,82.50
2023-04-20T12:50:33.559Z,85.60
2023-04-20T12:53:00.740Z,84.00
2023-04-20T12:55:27.984Z,82.70
2023-04-20T12:57:55.198Z,83.80
2023-04-20T13:00:22.387Z,82.90
2023-04-20T13:02:50.583Z,82.10
2023-04-20T13:05:17.940Z,82.40
2023-04-20T13:07:45.410Z,84.70
2023-04-20T13:10:12.591Z,82.80
2023-04-20T13:12:39.784Z,87.00
2023-04-20T13:15:13.122Z,84.40
2023-04-20T13:17:40.449Z,80.70
2023-04-20T13:20:08.250Z,83.90
2023-04-20T13:22:38.942Z,82.30
2023-04-20T13:25:12.101Z,82.30
2023-04-20T13:27:39.277Z,83.60
2023-04-20T13:30:07.764Z,82.70
2023-04-20T13:32:36.991Z,80.20
2023-04-20T13:35:06.886Z,80.40
2023-04-20T13:37:33.997Z,83.40
2023-04-20T13:40:01.732Z,81.60
2023-04-20T13:42:28.975Z,83.60
2023-04-20T13:44:56.367Z,79.90
2023-04-20T13:47:24.350Z,82.50
2023-04-20T13:49:51.610Z,81.30
2023-04-20T13:52:18.896Z,80.00
2023-04-20T13:54:46.111Z,80.90
2023-04-20T13:57:13.356Z,80.40
2023-04-20T13:59:40.469Z,81.80
2023-04-20T14:02:08.363Z,82.80
2023-04-20T14:04:35.587Z,80.10
2023-04-20T14:07:02.829Z,81.00
2023-04-20T14:09:32.054Z,79.20
2023-04-20T14:11:59.786Z,78.60
2023-04-20T14:14:27.628Z,78.20
2023-04-20T14:16:55.063Z,79.70
2023-04-20T14:19:22.369Z,80.30
2023-04-20T14:21:50.565Z,82.30
2023-04-20T14:24:18.154Z,82.80
2023-04-20T14:26:45.453Z,80.80
2023-04-20T14:29:12.616Z,80.90
2023-04-20T14:31:39.756Z,81.30
2023-04-20T14:34:07.305Z,80.80
2023-04-20T14:36:34.521Z,80.20
2023-04-20T14:39:02.604Z,78.40
2023-04-20T14:41:30.721Z,82.70
2023-04-20T14:43:59.442Z,81.10
2023-04-20T14:46:26.532Z,80.70
2023-04-20T14:48:53.709Z,82.30
2023-04-20T14:51:21.115Z,81.80
2023-04-20T14:53:48.219Z,84.60
2023-04-20T14:56:15.393Z,80.30
2023-04-20T14:58:42.677Z,79.00
2023-04-20T15:01:09.808Z,81.20
2023-04-20T15:03:37.241Z,80.50
2023-04-20T15:06:04.610Z,82.00
2023-04-20T15:08:31.822Z,83.10
2023-04-20T15:10:59.294Z,82.20
2023-04-20T15:13:26.837Z,83.30
2023-04-20T15:15:55.246Z,81.50
2023-04-20T15:18:22.899Z,82.20
2023-04-20T15:20:52.506Z,83.30
2023-04-20T15:23:19.944Z,83.40
2023-04-20T15:25:47.513Z,83.60
2023-04-20T15:28:14.787Z,82.30
2023-04-20T15:30:42.263Z,82.40
2023-04-20T15:33:09.525Z,81.90
2023-04-20T15:35:36.872Z,84.50
2023-04-20T15:38:04.309Z,82.90
2023-04-20T15:40:31.703Z,82.00
2023-04-20T15:42:58.881Z,84.00
2023-04-20T15:45:26.033Z,86.10
2023-04-20T15:47:53.275Z,84.50
2023-04-20T15:50:23.416Z,84.80
2023-04-20T15:52:52.827Z,81.90
2023-04-20T15:55:19.933Z,83.40
2023-04-20T15:57:49.630Z,85.50
2023-04-20T16:00:17.302Z,84.50
2023-04-20T16:05:12.354Z,82.20
2023-04-20T16:07:39.641Z,85.80
2023-04-20T16:10:07.882Z,83.50
2023-04-20T16:12:35.109Z,85.00
2023-04-20T16:15:03.857Z,88.40
2023-04-20T16:17:31.145Z,88.30
2023-04-20T16:19:58.309Z,90.40
2023-04-20T16:22:25.891Z,88.80
2023-04-20T16:24:53.047Z,90.60
2023-04-20T16:27:20.214Z,85.10
2023-04-20T16:29:47.425Z,88.40
2023-04-20T16:32:14.945Z,87.70
2023-04-20T16:34:42.158Z,87.30
2023-04-20T16:37:12.255Z,90.30
2023-04-20T16:39:39.346Z,92.10
2023-04-20T16:42:06.636Z,91.10
2023-04-20T16:44:33.738Z,90.80
2023-04-20T16:47:02.305Z,92.60
2023-04-20T16:49:29.706Z,92.60
2023-04-20T16:51:57.751Z,93.10
2023-04-20T16:54:25.055Z,93.50
2023-04-20T16:56:52.232Z,94.00
2023-04-20T16:59:19.414Z,91.50
2023-04-20T17:01:48.591Z,91.00
2023-04-20T17:04:17.762Z,93.70
2023-04-20T17:06:46.776Z,95.60
2023-04-20T17:09:14.641Z,95.90
2023-04-20T17:11:44.249Z,96.40
2023-04-20T17:14:11.450Z,98.70
2023-04-20T17:16:38.632Z,98.40
2023-04-20T17:19:05.765Z,98.20
2023-04-20T17:21:33.000Z,97.60
2023-04-20T17:24:00.419Z,98.80
2023-04-20T17:26:29.087Z,98.80
2023-04-20T17:28:56.476Z,99.00
2023-04-20T17:31:23.671Z,99.50
2023-04-20T17:33:50.962Z,99.00
2023-04-20T17:36:18.325Z,99.60
2023-04-20T17:38:46.206Z,99.90
2023-04-20T17:41:13.609Z,99.90
2023-04-20T17:43:41.162Z,99.90
2023-04-20T17:46:08.358Z,99.90
2023-04-20T17:48:35.892Z,99.90
2023-04-20T17:51:05.244Z,99.90
2023-04-20T17:53:32.431Z,99.90
2023-04-20T17:56:00.134Z,99.90
2023-04-20T17:58:27.385Z,99.90
2023-04-20T18:00:54.869Z,99.90
2023-04-20T18:03:22.242Z,99.90
2023-04-20T18:05:49.628Z,99.90
2023-04-20T18:08:17.902Z,99.90
2023-04-20T18:10:45.542Z,99.90
2023-04-20T18:13:13.503Z,99.90
2023-04-20T18:15:40.795Z,99.90
2023-04-20T18:18:08.477Z,99.90
2023-04-20T18:20:35.924Z,99.90
2023-04-20T18:23:03.249Z,99.90
2023-04-20T18:25:30.426Z,99.90
2023-04-20T18:27:57.661Z,99.90
2023-04-20T18:30:25.248Z,99.90
2023-04-20T18:32:53.870Z,99.90
2023-04-20T18:35:21.114Z,99.90
2023-04-20T18:37:49.057Z,99.90
2023-04-20T18:40:16.643Z,99.90
2023-04-20T18:42:44.204Z,99.90
2023-04-20T18:45:13.962Z,99.90
2023-04-20T18:47:41.092Z,99.90
2023-04-20T18:50:09.480Z,99.90
2023-04-20T18:52:36.912Z,99.90
2023-04-20T18:55:04.260Z,99.90
2023-04-20T18:57:31.638Z,99.90
2023-04-20T18:59:58.767Z,99.90
2023-04-20T19:02:26.287Z,99.90
2023-04-20T19:04:53.546Z,99.90
2023-04-20T19:07:20.880Z,99.90
2023-04-20T19:09:48.008Z,99.90
2023-04-20T19:12:15.419Z,99.90
2023-04-20T19:14:42.905Z,99.90
2023-04-20T19:17:10.896Z,99.90
2023-04-20T19:19:39.308Z,99.90
2023-04-20T19:22:06.686Z,99.90
2023-04-20T19:24:34.505Z,99.90
2023-04-20T19:27:02.580Z,99.90
2023-04-20T19:29:36.131Z,99.90
2023-04-20T19:32:03.906Z,99.90
2023-04-20T19:34:31.242Z,99.90
2023-04-20T19:37:00.904Z,99.90
2023-04-20T19:39:29.521Z,99.90
2023-04-20T19:41:57.802Z,99.90
2023-04-20T19:44:26.245Z,99.90
2023-04-20T19:46:56.471Z,99.90
2023-04-20T19:49:24.618Z,99.90
2023-04-20T19:51:53.227Z,99.90
2023-04-20T19:54:20.837Z,99.90
2023-04-20T19:56:48.367Z,99.90
2023-04-20T19:59:17.597Z,99.90
2023-04-20T20:01:46.577Z,99.90
2023-04-20T20:04:14.544Z,99.90
2023-04-20T20:06:44.136Z,99.90
2023-04-20T20:09:11.595Z,99.90
2023-04-20T20:11:38.934Z,99.90
2023-04-20T20:14:06.089Z,99.90
2023-04-20T20:16:35.325Z,99.90
2023-04-20T20:19:02.748Z,99.90
2023-04-20T20:21:30.264Z,99.90
2023-04-20T20:23:57.449Z,99.90
2023-04-20T20:26:24.720Z,99.90
2023-04-20T20:28:52.260Z,99.90
2023-04-20T20:31:19.594Z,99.90
2023-04-20T20:33:47.158Z,99.90
2023-04-20T20:36:14.795Z,99.90
2023-04-20T20:38:43.829Z,99.90
2023-04-20T20:41:13.659Z,99.90
2023-04-20T20:43:42.573Z,99.90
2023-04-20T20:46:10.129Z,99.90
2023-04-20T20:48:37.859Z,99.90
2023-04-20T20:51:04.970Z,99.90
2023-04-20T20:53:32.140Z,99.90
2023-04-20T20:55:59.307Z,99.90
2023-04-20T20:58:26.617Z,99.90
2023-04-20T21:00:53.813Z,99.90
2023-04-20T21:03:21.565Z,99.90
2023-04-20T21:05:48.943Z,99.90
2023-04-20T21:08:17.408Z,99.90
2023-04-20T21:10:44.530Z,99.90
2023-04-20T21:13:11.879Z,99.90
2023-04-20T21:15:39.068Z,99.90
2023-04-20T21:18:06.336Z,99.90
2023-04-20T21:20:34.349Z,99.90
2023-04-20T21:23:01.744Z,99.90
2023-04-20T21:25:29.038Z,99.90
2023-04-20T21:27:59.144Z,99.90
2023-04-20T21:30:27.003Z,99.90
2023-04-20T21:32:54.348Z,99.90
2023-04-20T21:35:22.044Z,99.90
2023-04-20T21:37:49.366Z,99.90
2023-04-20T21:40:16.600Z,99.90
2023-04-20T21:42:43.877Z,99.90
2023-04-20T21:45:11.793Z,99.90
2023-04-20T21:47:39.601Z,99.90
2023-04-20T21:50:07.004Z,99.90
2023-04-20T21:52:34.299Z,99.90
2023-04-20T21:55:01.520Z,99.90
2023-04-20T21:57:28.613Z,99.90
2023-04-20T21:59:55.962Z,99.90
2023-04-20T22:02:23.728Z,99.90
2023-04-20T22:04:51.217Z,99.90
2023-04-20T22:07:18.839Z,99.90
2023-04-20T22:09:45.960Z,99.90
2023-04-20T22:12:13.075Z,99.90
2023-04-20T22:14:40.220Z,99.90
2023-04-20T22:17:09.746Z,99.90
2023-04-20T22:19:37.093Z,99.90
2023-04-20T22:22:04.430Z,99.90
2023-04-20T22:24:31.623Z,99.90
2023-04-20T22:26:58.973Z,99.90
2023-04-20T22:29:26.297Z,99.90
2023-04-20T22:31:53.446Z,99.90
2023-04-20T22:34:20.775Z,99.90
2023-04-20T22:36:47.910Z,99.90
2023-04-20T22:39:15.131Z,99.90
2023-04-20T22:41:42.451Z,99.90
2023-04-20T22:44:09.596Z,99.90
2023-04-20T22:46:36.783Z,99.90
2023-04-20T22:49:04.397Z,99.90
2023-04-20T22:51:32.040Z,99.90
2023-04-20T22:54:01.061Z,99.90
2023-04-20T22:56:29.523Z,99.90
2023-04-20T22:58:56.680Z,99.90
2023-04-20T23:01:26.755Z,99.90
2023-04-20T23:03:54.117Z,99.90
2023-04-20T23:06:22.238Z,99.90
2023-04-20T23:08:50.683Z,99.90
2023-04-20T23:11:18.878Z,99.90
2023-04-20T23:13:49.018Z,99.90
2023-04-20T23:16:16.682Z,99.90
2023-04-20T23:18:43.829Z,99.90
2023-04-20T23:21:10.975Z,99.90
2023-04-20T23:23:38.097Z,99.90
2023-04-20T23:26:05.590Z,99.90
2023-04-20T23:28:32.670Z,99.90
2023-04-20T23:31:00.088Z,99.90
2023-04-20T23:33:27.190Z,99.90
2023-04-20T23:35:54.421Z,99.90
2023-04-20T23:38:21.489Z,99.90
2023-04-20T23:40:48.749Z,99.90
2023-04-20T23:43:15.835Z,99.90
2023-04-20T23:45:42.997Z,99.90
2023-04-20T23:48:10.113Z,99.90
2023-04-20T23:50:37.313Z,99.90
2023-04-20T23:53:05.819Z,99.90
2023-04-20T23:55:33.170Z,99.90
2023-04-20T23:58:00.455Z,99.90
